Aviation Digital Data Service (ADDS)

Output produced by METARs form (1024 UTC 18 October 2018)
found at http://www.aviationweather.gov/metar/data/
 
GABS 181000Z 21005KT 180V250 CAVOK 30/22 Q1014 NOSIG
TAF GABS 180500Z 1806/1912 22006KT 9999 FEW030 
     PROB40 
     TEMPO 1806/1809 4000 HZ 
     PROB40 
     TEMPO 1816/1824 TS SCT030 FEW033CB
       
TAF GAGO 180500Z 1806/1906 32012G22KT 8000 NSC 
     PROB40 
     TEMPO 1806/1815 4000 DU 
     PROB30 
     TEMPO 1815/1821 08015G35KT 2000 TSDU FEW040CB
       
GAMB 180900Z 00000KT CAVOK 31/22 Q1012
GANR 180900Z 36004KT CAVOK 31/19 Q1013